Morrisville, Pennsylvania
Current Conditions -  °F | °C
As of 11:53 AM on Friday 31 Oct 2014 (Local Time) from KTTN Reporting Station
Broken Clouds Broken Clouds  
Wind Chill: 47°   Ceiling: 4500
Heat Index: 49°   Visibility: 10mi
Dew Point: 35°   Wind: 6mph
Humidity: 59%   Direction: 350°N
Pressure: 29.97"   Gusts: NA
Location:  40.21°N, 74.79°W
Report Text: KTTN 311553Z 35005KT 10SM BKN045 09/02 A2997 RMK AO2 SLP144 T00940017
Loading
Personal Weather Stations






























Interactive Weather Map
Tropical Storm Tracking
New forecast layout! Learn more

10-Day Weather Forecast

Advertisements
Track Severe Weather on mobile